Time;durP1;ratioP1;P1;durP2;ratioP2;P2;SDS_P1;SDS_P2;PMS_P1;PMS_P2;Temp;Humidity;BMP_temperature;BMP_pressure;BME280_temperature;BME280_humidity;BME280_pressure;Samples;Min_cycle;Max_cycle;Signal;HPM_P1;HPM_P2
2022/07/04 00:00:57;;;;;;;9.97;6.00;;;;;;;;;;5053942;28;20519;-78
2022/07/04 00:03:23;;;;;;;7.30;5.72;;;;;;;;;;5035847;28;20358;-79
2022/07/04 00:05:48;;;;;;;6.23;5.40;;;;;;;;;;5035836;28;20017;-79
2022/07/04 00:08:13;;;;;;;7.03;5.33;;;;;;;;;;5053610;28;20264;-78
2022/07/04 00:10:39;;;;;;;8.07;6.50;;;;;;;;;;5035661;28;20279;-79
2022/07/04 00:13:05;;;;;;;8.02;6.40;;;;;;;;;;5035761;28;20029;-78
2022/07/04 00:15:31;;;;;;;8.25;6.65;;;;;;;;;;5035664;28;20462;-78
2022/07/04 00:17:56;;;;;;;7.03;6.15;;;;;;;;;;5053586;28;20031;-78
2022/07/04 00:20:21;;;;;;;9.95;7.00;;;;;;;;;;5035522;28;20047;-77
2022/07/04 00:22:47;;;;;;;6.85;6.07;;;;;;;;;;5035417;28;20449;-78
2022/07/04 00:25:12;;;;;;;7.90;6.10;;;;;;;;;;5053291;28;20017;-79
2022/07/04 00:27:37;;;;;;;9.90;7.72;;;;;;;;;;5053217;28;20325;-79
2022/07/04 00:30:03;;;;;;;10.23;6.95;;;;;;;;;;5053322;28;20017;-79
2022/07/04 00:32:29;;;;;;;9.50;5.53;;;;;;;;;;5053231;28;20021;-77
2022/07/04 00:34:54;;;;;;;10.48;8.00;;;;;;;;;;5035434;28;20440;-80
2022/07/04 00:37:19;;;;;;;9.05;6.97;;;;;;;;;;5053088;28;20527;-78
2022/07/04 00:39:44;;;;;;;7.07;6.10;;;;;;;;;;5035440;28;20442;-79
2022/07/04 00:42:10;;;;;;;8.20;6.07;;;;;;;;;;5035342;28;20354;-79
2022/07/04 00:44:36;;;;;;;7.72;5.95;;;;;;;;;;5035292;28;20134;-79
2022/07/04 00:47:01;;;;;;;9.05;7.10;;;;;;;;;;5053145;28;20515;-79
2022/07/04 00:49:27;;;;;;;9.73;6.47;;;;;;;;;;5035341;28;20040;-79
2022/07/04 00:51:52;;;;;;;7.20;6.37;;;;;;;;;;5035089;28;20399;-79
2022/07/04 00:54:18;;;;;;;8.77;6.45;;;;;;;;;;5053104;28;20267;-79
2022/07/04 00:56:44;;;;;;;7.90;5.90;;;;;;;;;;5033041;28;20017;-79
2022/07/04 00:59:09;;;;;;;7.28;6.25;;;;;;;;;;5032867;28;20021;-79
2022/07/04 01:01:35;;;;;;;8.82;6.30;;;;;;;;;;5050903;28;20016;-79
2022/07/04 01:04:04;;;;;;;9.43;6.40;;;;;;;;;;5033453;28;20423;-79
2022/07/04 01:06:30;;;;;;;8.23;6.88;;;;;;;;;;5033173;28;20021;-79
2022/07/04 01:08:55;;;;;;;11.18;7.28;;;;;;;;;;5033345;28;20024;-80
2022/07/04 01:11:21;;;;;;;11.60;7.65;;;;;;;;;;5033187;28;20024;-79
2022/07/04 01:13:46;;;;;;;11.00;7.60;;;;;;;;;;5054595;28;20021;-79
2022/07/04 01:16:12;;;;;;;8.88;6.72;;;;;;;;;;5036839;28;20406;-79
2022/07/04 01:18:38;;;;;;;8.85;6.75;;;;;;;;;;5054753;28;20104;-78
2022/07/04 01:21:04;;;;;;;9.90;7.38;;;;;;;;;;5036719;28;20112;-79
2022/07/04 01:23:29;;;;;;;10.48;7.32;;;;;;;;;;5036842;28;20504;-79
2022/07/04 01:25:56;;;;;;;8.50;6.55;;;;;;;;;;5054491;28;20028;-79
2022/07/04 01:28:21;;;;;;;8.35;6.60;;;;;;;;;;5055442;28;20055;-79
2022/07/04 01:30:47;;;;;;;10.43;7.65;;;;;;;;;;5056606;28;20025;-79
2022/07/04 01:33:12;;;;;;;10.82;6.90;;;;;;;;;;5056607;28;20024;-79
2022/07/04 01:35:37;;;;;;;10.55;7.28;;;;;;;;;;5038465;28;20020;-79
2022/07/04 01:38:03;;;;;;;10.10;7.18;;;;;;;;;;5056598;28;20025;-80
2022/07/04 01:40:28;;;;;;;10.57;7.60;;;;;;;;;;5038428;28;20078;-79
2022/07/04 01:42:53;;;;;;;9.23;6.28;;;;;;;;;;5038382;28;20549;-79
2022/07/04 01:45:19;;;;;;;8.95;6.60;;;;;;;;;;5038372;28;20020;-79
2022/07/04 01:47:44;;;;;;;10.43;8.07;;;;;;;;;;5056244;28;20024;-77
2022/07/04 01:50:12;;;;;;;9.02;7.60;;;;;;;;;;5038183;28;20020;-79
2022/07/04 01:52:37;;;;;;;9.52;7.72;;;;;;;;;;5056377;28;20051;-79
2022/07/04 01:55:03;;;;;;;10.30;8.20;;;;;;;;;;5038300;28;20512;-80
2022/07/04 01:57:28;;;;;;;10.30;7.75;;;;;;;;;;5056173;28;20042;-79
2022/07/04 02:02:37;;;;;;;9.10;6.82;;;;;;;;;;5056079;28;20294;-77
2022/07/04 02:05:04;;;;;;;8.47;7.13;;;;;;;;;;5038060;28;20397;-79
2022/07/04 02:07:30;;;;;;;8.75;6.97;;;;;;;;;;5038578;28;20275;-79
2022/07/04 02:09:55;;;;;;;9.02;6.55;;;;;;;;;;5056053;28;20171;-78
2022/07/04 02:15:06;;;;;;;8.77;6.60;;;;;;;;;;5055980;28;20496;-78
2022/07/04 02:17:33;;;;;;;10.25;8.00;;;;;;;;;;5037825;28;20037;-79
2022/07/04 02:19:59;;;;;;;9.27;7.13;;;;;;;;;;5055667;28;20095;-78
2022/07/04 02:22:24;;;;;;;8.82;6.75;;;;;;;;;;5055885;28;20040;-79
2022/07/04 02:24:51;;;;;;;9.83;7.17;;;;;;;;;;5036513;28;20385;-79
2022/07/04 02:27:17;;;;;;;8.25;6.68;;;;;;;;;;5055561;28;20283;-79
2022/07/04 02:29:43;;;;;;;8.75;6.28;;;;;;;;;;5055472;28;20437;-78
2022/07/04 02:32:09;;;;;;;9.13;7.60;;;;;;;;;;5034866;28;20036;-80
2022/07/04 02:34:34;;;;;;;8.82;7.53;;;;;;;;;;5036707;28;20139;-78
2022/07/04 02:37:00;;;;;;;8.82;7.65;;;;;;;;;;5036499;28;20033;-79
2022/07/04 02:39:25;;;;;;;11.57;7.40;;;;;;;;;;5036137;28;20463;-80
2022/07/04 02:41:50;;;;;;;9.53;7.87;;;;;;;;;;5036290;28;20024;-80
2022/07/04 02:44:16;;;;;;;9.38;7.28;;;;;;;;;;5035264;28;20267;-78
2022/07/04 02:46:41;;;;;;;11.07;8.18;;;;;;;;;;5035087;28;20032;-79
2022/07/04 02:49:06;;;;;;;10.07;7.30;;;;;;;;;;5035264;28;20454;-79
2022/07/04 02:51:33;;;;;;;9.43;7.38;;;;;;;;;;5053663;28;20282;-78
2022/07/04 02:53:58;;;;;;;11.07;8.10;;;;;;;;;;5035547;28;20024;-79
2022/07/04 02:56:23;;;;;;;10.15;7.53;;;;;;;;;;5035066;28;20476;-80
2022/07/04 02:58:49;;;;;;;9.27;7.80;;;;;;;;;;5034970;28;20079;-79
2022/07/04 03:01:14;;;;;;;11.85;8.15;;;;;;;;;;5035048;28;20071;-81
2022/07/04 03:03:40;;;;;;;8.98;7.50;;;;;;;;;;5035124;28;20098;-80
2022/07/04 03:06:06;;;;;;;10.27;7.45;;;;;;;;;;5035199;28;20421;-77
2022/07/04 03:08:31;;;;;;;10.43;7.05;;;;;;;;;;5053572;28;20449;-79
2022/07/04 03:10:57;;;;;;;10.45;7.72;;;;;;;;;;5034789;28;20021;-80
2022/07/04 03:13:22;;;;;;;8.98;7.75;;;;;;;;;;5052700;28;20505;-81
2022/07/04 03:15:47;;;;;;;9.32;7.63;;;;;;;;;;5052444;28;20485;-78
2022/07/04 03:18:13;;;;;;;8.85;7.82;;;;;;;;;;5052637;28;20082;-79
2022/07/04 03:20:38;;;;;;;12.20;7.30;;;;;;;;;;5034464;28;20461;-80
2022/07/04 03:23:03;;;;;;;11.32;6.95;;;;;;;;;;5034344;28;20024;-79
2022/07/04 03:25:29;;;;;;;11.73;8.70;;;;;;;;;;5052397;28;20075;-80
2022/07/04 03:27:54;;;;;;;9.50;7.63;;;;;;;;;;5034261;28;20090;-80
2022/07/04 03:30:20;;;;;;;9.23;7.30;;;;;;;;;;5034147;28;20374;-80
2022/07/04 03:32:45;;;;;;;8.82;7.15;;;;;;;;;;5034136;28;20021;-79
2022/07/04 03:35:10;;;;;;;10.00;7.57;;;;;;;;;;5033787;28;20450;-79
2022/07/04 03:37:35;;;;;;;11.85;9.02;;;;;;;;;;5052358;28;20287;-79
2022/07/04 03:40:01;;;;;;;10.38;7.43;;;;;;;;;;5034015;28;20044;-79
2022/07/04 03:42:26;;;;;;;9.20;8.20;;;;;;;;;;5034405;28;20378;-79
2022/07/04 03:44:52;;;;;;;9.27;7.55;;;;;;;;;;5053873;28;20017;-80
2022/07/04 03:47:17;;;;;;;9.77;8.05;;;;;;;;;;5053940;28;20048;-80
2022/07/04 03:49:43;;;;;;;15.57;9.48;;;;;;;;;;5036142;28;20028;-79
2022/07/04 03:52:09;;;;;;;9.02;7.30;;;;;;;;;;5035894;28;20485;-79
2022/07/04 03:54:34;;;;;;;10.80;8.80;;;;;;;;;;5035472;28;20535;-80
2022/07/04 03:56:59;;;;;;;10.93;8.40;;;;;;;;;;5033773;28;20029;-80
2022/07/04 03:59:25;;;;;;;9.77;7.83;;;;;;;;;;5051514;28;20027;-80
2022/07/04 04:01:50;;;;;;;10.30;7.80;;;;;;;;;;5033898;28;20271;-80
2022/07/04 04:06:59;;;;;;;9.82;7.35;;;;;;;;;;5051741;28;20055;-79
2022/07/04 04:09:24;;;;;;;9.23;7.77;;;;;;;;;;5051369;28;20029;-81
2022/07/04 04:11:53;;;;;;;9.20;7.15;;;;;;;;;;5052719;28;20275;-81
2022/07/04 04:14:18;;;;;;;13.55;7.88;;;;;;;;;;5051347;28;20462;-80
2022/07/04 04:16:43;;;;;;;10.48;7.28;;;;;;;;;;5033340;28;20021;-80
2022/07/04 04:19:09;;;;;;;8.13;5.97;;;;;;;;;;5033311;28;20021;-80
2022/07/04 04:21:34;;;;;;;6.95;6.25;;;;;;;;;;5051315;28;20610;-80
2022/07/04 04:24:00;;;;;;;8.73;6.75;;;;;;;;;;5051166;28;20104;-81
2022/07/04 04:26:25;;;;;;;7.70;6.07;;;;;;;;;;5033227;28;20017;-81
2022/07/04 04:28:50;;;;;;;14.37;6.63;;;;;;;;;;5052326;28;20053;-79
2022/07/04 04:31:17;;;;;;;8.88;6.18;;;;;;;;;;5025385;28;20272;-80
2022/07/04 04:33:43;;;;;;;15.05;7.15;;;;;;;;;;5033261;28;20030;-79
2022/07/04 04:36:10;;;;;;;9.73;6.55;;;;;;;;;;5033242;28;20458;-79
2022/07/04 04:38:35;;;;;;;8.90;6.40;;;;;;;;;;5033208;28;20109;-80
2022/07/04 04:41:02;;;;;;;9.73;6.05;;;;;;;;;;5015320;28;20219;-80
2022/07/04 04:43:27;;;;;;;8.23;5.85;;;;;;;;;;5015414;28;20520;-80
2022/07/04 04:45:54;;;;;;;7.03;6.17;;;;;;;;;;5015306;28;20112;-80
2022/07/04 04:48:19;;;;;;;9.27;5.70;;;;;;;;;;5032733;28;20295;-80
2022/07/04 04:50:46;;;;;;;7.13;5.18;;;;;;;;;;4999009;28;20462;-74
2022/07/04 04:53:14;;;;;;;7.43;5.10;;;;;;;;;;5033243;28;20179;-78
2022/07/04 04:55:40;;;;;;;6.50;4.53;;;;;;;;;;5033134;28;20048;-78
2022/07/04 04:58:06;;;;;;;6.03;4.72;;;;;;;;;;5015249;28;20494;-81
2022/07/04 05:00:32;;;;;;;8.98;5.32;;;;;;;;;;5032879;28;20021;-80
2022/07/04 05:02:58;;;;;;;5.85;5.25;;;;;;;;;;5033113;28;20095;-79
2022/07/04 05:05:24;;;;;;;5.47;4.22;;;;;;;;;;5050354;28;20025;-78
2022/07/04 05:07:51;;;;;;;9.45;4.20;;;;;;;;;;5052917;28;20385;-80
2022/07/04 05:10:17;;;;;;;8.23;4.70;;;;;;;;;;5053024;28;20037;-82
2022/07/04 05:12:45;;;;;;;10.77;4.57;;;;;;;;;;5019216;28;20440;-79
2022/07/04 05:15:13;;;;;;;9.48;4.85;;;;;;;;;;5034592;28;20079;-81
2022/07/04 05:17:40;;;;;;;9.55;4.57;;;;;;;;;;5052796;28;20025;-79
2022/07/04 05:20:07;;;;;;;7.13;4.00;;;;;;;;;;5053068;28;20027;-82
2022/07/04 05:22:34;;;;;;;13.90;4.32;;;;;;;;;;5035850;28;20103;-80
2022/07/04 05:25:01;;;;;;;5.97;4.22;;;;;;;;;;5019222;28;20128;-80
2022/07/04 05:27:30;;;;;;;6.80;4.75;;;;;;;;;;5019147;28;20071;-79
2022/07/04 05:29:58;;;;;;;5.40;3.67;;;;;;;;;;5020652;28;20029;-81
2022/07/04 05:32:25;;;;;;;9.55;4.18;;;;;;;;;;5017807;28;20033;-80
2022/07/04 05:34:50;;;;;;;7.25;4.13;;;;;;;;;;4998396;28;20034;-79
2022/07/04 05:37:17;;;;;;;10.87;5.23;;;;;;;;;;5031122;28;20026;-79
2022/07/04 05:39:51;;;;;;;65.15;9.60;;;;;;;;;;5032662;28;20294;-78
2022/07/04 05:42:16;;;;;;;5.40;4.45;;;;;;;;;;5032847;28;20022;-79
2022/07/04 05:44:41;;;;;;;7.60;3.58;;;;;;;;;;5031675;28;20028;-79
2022/07/04 05:47:07;;;;;;;15.50;5.93;;;;;;;;;;5030267;28;20025;-80
2022/07/04 05:49:32;;;;;;;3.30;2.63;;;;;;;;;;5012670;28;20276;-80
2022/07/04 05:51:57;;;;;;;4.80;3.13;;;;;;;;;;5030683;28;20036;-81
2022/07/04 05:54:22;;;;;;;3.93;2.40;;;;;;;;;;5030451;28;20490;-79
2022/07/04 05:56:48;;;;;;;3.57;2.57;;;;;;;;;;5012123;28;20307;-80
2022/07/04 05:59:13;;;;;;;6.80;2.70;;;;;;;;;;5014840;28;20283;-81
2022/07/04 06:01:39;;;;;;;3.60;1.98;;;;;;;;;;5015844;28;20606;-81
2022/07/04 06:04:05;;;;;;;6.13;2.92;;;;;;;;;;5015912;28;20026;-80
2022/07/04 06:06:30;;;;;;;5.13;2.92;;;;;;;;;;5033629;28;20029;-82
2022/07/04 06:08:56;;;;;;;3.83;2.27;;;;;;;;;;5033621;28;20021;-81
2022/07/04 06:11:21;;;;;;;3.47;2.33;;;;;;;;;;5033425;28;20271;-82
2022/07/04 06:13:47;;;;;;;5.50;2.47;;;;;;;;;;5017545;28;20056;-82
2022/07/04 06:16:12;;;;;;;5.15;2.47;;;;;;;;;;5035630;28;20100;-81
2022/07/04 06:18:37;;;;;;;4.07;2.20;;;;;;;;;;5035314;28;20048;-81
2022/07/04 06:21:03;;;;;;;4.50;2.50;;;;;;;;;;5017240;28;20053;-81
2022/07/04 06:23:28;;;;;;;5.60;2.53;;;;;;;;;;5035654;28;20024;-82
2022/07/04 06:25:54;;;;;;;7.30;2.37;;;;;;;;;;5017800;28;20429;-81
2022/07/04 06:28:19;;;;;;;4.53;1.92;;;;;;;;;;5035395;28;20057;-82
2022/07/04 06:30:44;;;;;;;1.88;1.67;;;;;;;;;;5017265;28;20116;-81
2022/07/04 06:33:10;;;;;;;5.10;2.20;;;;;;;;;;5017550;28;20116;-81
2022/07/04 06:35:54;;;;;;;5.82;1.98;;;;;;;;;;5039600;28;20568;-76
2022/07/04 06:38:25;;;;;;;3.22;1.75;;;;;;;;;;5034877;28;20096;-77
2022/07/04 06:40:53;;;;;;;1.70;1.60;;;;;;;;;;5025585;28;20024;-75
2022/07/04 06:43:18;;;;;;;1.77;1.48;;;;;;;;;;5035096;28;20010;-77
2022/07/04 06:45:45;;;;;;;1.85;1.58;;;;;;;;;;5034719;28;20121;-76
2022/07/04 06:48:11;;;;;;;2.60;2.03;;;;;;;;;;5017248;28;20020;-76
2022/07/04 06:50:39;;;;;;;2.67;2.00;;;;;;;;;;5017480;28;20025;-77
2022/07/04 06:53:06;;;;;;;4.15;1.70;;;;;;;;;;5035194;28;20474;-77
2022/07/04 06:55:34;;;;;;;3.88;1.73;;;;;;;;;;5027350;28;20047;-77
2022/07/04 06:57:59;;;;;;;2.13;1.65;;;;;;;;;;5054810;28;20021;-78
2022/07/04 07:00:25;;;;;;;3.97;2.40;;;;;;;;;;5054634;28;20032;-78
2022/07/04 07:02:50;;;;;;;5.65;1.40;;;;;;;;;;5050413;28;20032;-77
2022/07/04 07:05:17;;;;;;;3.97;1.77;;;;;;;;;;5034699;28;20108;-77
2022/07/04 07:07:43;;;;;;;7.50;1.92;;;;;;;;;;5034849;28;20370;-77
2022/07/04 07:10:11;;;;;;;3.03;1.73;;;;;;;;;;5033243;28;20037;-78
2022/07/04 07:12:36;;;;;;;3.75;1.80;;;;;;;;;;5034590;28;20027;-78
2022/07/04 07:15:02;;;;;;;4.57;2.40;;;;;;;;;;5033462;28;20033;-78
2022/07/04 07:17:29;;;;;;;2.85;1.70;;;;;;;;;;5034143;28;20370;-75
2022/07/04 07:19:56;;;;;;;2.65;1.85;;;;;;;;;;5034328;28;20018;-78
2022/07/04 07:22:23;;;;;;;2.10;1.90;;;;;;;;;;5034246;28;20410;-76
2022/07/04 07:24:50;;;;;;;4.55;1.60;;;;;;;;;;5033813;28;20022;-76
2022/07/04 07:27:17;;;;;;;2.70;1.45;;;;;;;;;;5033976;28;20526;-76
2022/07/04 07:29:42;;;;;;;5.03;2.75;;;;;;;;;;5034120;28;20029;-76
2022/07/04 07:32:08;;;;;;;3.67;1.50;;;;;;;;;;5033663;28;20078;-78
2022/07/04 07:34:34;;;;;;;3.60;1.50;;;;;;;;;;5034382;28;20275;-78
2022/07/04 07:36:59;;;;;;;5.53;1.42;;;;;;;;;;5016488;28;20135;-76
2022/07/04 07:39:25;;;;;;;4.57;1.92;;;;;;;;;;5018747;28;20041;-75
2022/07/04 07:41:51;;;;;;;7.57;1.97;;;;;;;;;;5035849;28;20028;-76
2022/07/04 07:44:16;;;;;;;5.78;1.77;;;;;;;;;;5033684;28;20013;-77
2022/07/04 07:46:42;;;;;;;3.08;1.95;;;;;;;;;;5016001;28;20079;-76
2022/07/04 07:49:07;;;;;;;4.53;1.80;;;;;;;;;;5034177;28;20018;-76
2022/07/04 07:51:32;;;;;;;3.73;1.50;;;;;;;;;;5031936;28;20280;-76
2022/07/04 07:53:58;;;;;;;6.57;2.00;;;;;;;;;;5016065;28;20045;-78
2022/07/04 07:56:24;;;;;;;2.92;1.98;;;;;;;;;;5033664;28;20017;-76
2022/07/04 07:58:58;;;;;;;4.18;2.50;;;;;;;;;;5033833;28;20036;-78
2022/07/04 08:01:27;;;;;;;3.95;2.17;;;;;;;;;;5034086;28;20025;-76
2022/07/04 08:06:38;;;;;;;1.75;1.65;;;;;;;;;;5034640;28;20128;-77
2022/07/04 08:09:05;;;;;;;2.33;1.95;;;;;;;;;;5015893;28;20091;-77
2022/07/04 08:11:31;;;;;;;4.53;1.92;;;;;;;;;;5015733;28;20414;-78
2022/07/04 08:14:02;;;;;;;4.22;2.22;;;;;;;;;;5033689;28;20174;-78
2022/07/04 08:16:28;;;;;;;4.57;2.05;;;;;;;;;;5015908;28;20022;-77
2022/07/04 08:18:53;;;;;;;4.47;2.30;;;;;;;;;;5033622;28;20048;-78
2022/07/04 08:21:19;;;;;;;4.23;3.17;;;;;;;;;;5015045;28;20761;-76
2022/07/04 08:23:46;;;;;;;8.40;2.70;;;;;;;;;;5034130;28;20147;-78
2022/07/04 08:26:12;;;;;;;4.05;2.08;;;;;;;;;;5033556;28;20040;-79
2022/07/04 08:28:37;;;;;;;3.70;1.90;;;;;;;;;;5033863;28;20139;-78
2022/07/04 08:31:04;;;;;;;3.80;2.77;;;;;;;;;;5032769;28;20092;-79
2022/07/04 08:33:32;;;;;;;5.38;2.65;;;;;;;;;;5052560;28;20569;-78
2022/07/04 08:35:58;;;;;;;10.60;2.90;;;;;;;;;;5053068;28;20017;-78
2022/07/04 08:38:23;;;;;;;4.80;2.20;;;;;;;;;;5052886;28;20017;-77
2022/07/04 08:40:59;;;;;;;10.33;2.50;;;;;;;;;;5053576;28;20931;-77
2022/07/04 08:43:26;;;;;;;5.45;2.42;;;;;;;;;;5053290;28;20036;-77
2022/07/04 08:45:54;;;;;;;4.18;2.05;;;;;;;;;;5053072;28;20020;-77
2022/07/04 08:48:25;;;;;;;3.55;2.05;;;;;;;;;;5035017;28;20044;-78
2022/07/04 08:50:58;;;;;;;5.75;2.58;;;;;;;;;;5052817;28;20125;-77
2022/07/04 08:53:28;;;;;;;7.93;1.88;;;;;;;;;;5034939;28;20021;-78
2022/07/04 08:58:41;;;;;;;6.15;2.92;;;;;;;;;;5038303;28;20043;-82
2022/07/04 09:01:16;;;;;;;8.80;2.30;;;;;;;;;;5053214;28;20009;-78
2022/07/04 09:03:43;;;;;;;3.17;2.25;;;;;;;;;;5035864;28;20369;-80
2022/07/04 09:06:11;;;;;;;9.18;2.85;;;;;;;;;;5052850;28;20009;-80
2022/07/04 09:08:38;;;;;;;4.63;1.88;;;;;;;;;;5038225;28;20052;-80
2022/07/04 09:11:04;;;;;;;5.60;3.17;;;;;;;;;;5049305;28;20028;-78
2022/07/04 09:13:30;;;;;;;5.00;2.55;;;;;;;;;;5034313;28;20054;-79
2022/07/04 09:15:59;;;;;;;4.32;2.47;;;;;;;;;;5035637;28;20022;-77
2022/07/04 09:18:30;;;;;;;4.72;2.53;;;;;;;;;;5053163;28;20056;-79
2022/07/04 09:21:08;;;;;;;8.63;2.80;;;;;;;;;;5056313;28;20466;-79
2022/07/04 09:23:39;;;;;;;8.25;2.80;;;;;;;;;;5053632;28;20366;-79
2022/07/04 09:26:04;;;;;;;;;;;;;;;;;;5052849;28;20071;-79
2022/07/04 09:28:33;;;;;;;4.50;2.20;;;;;;;;;;5052280;28;19916;-77
2022/07/04 09:30:58;;;;;;;4.55;2.92;;;;;;;;;;5034642;28;20017;-80
2022/07/04 09:33:46;;;;;;;9.70;4.53;;;;;;;;;;5054848;28;20024;-78
2022/07/04 09:36:12;;;;;;;9.05;3.13;;;;;;;;;;5058314;28;20024;-78
2022/07/04 09:38:39;;;;;;;3.85;2.63;;;;;;;;;;5058044;28;20024;-79
2022/07/04 09:44:00;;;;;;;5.38;2.70;;;;;;;;;;5056557;28;20497;-80
2022/07/04 09:46:26;;;;;;;3.92;3.13;;;;;;;;;;5054117;28;20053;-79
2022/07/04 09:48:53;;;;;;;3.33;3.03;;;;;;;;;;5056308;28;20028;-79
2022/07/04 09:51:37;;;;;;;6.80;2.72;;;;;;;;;;5038355;28;20096;-82
2022/07/04 09:54:18;;;;;;;4.75;2.85;;;;;;;;;;5056529;28;20094;-80
2022/07/04 09:57:03;;;;;;;3.90;3.25;;;;;;;;;;5055560;28;20016;-78
2022/07/04 09:59:29;;;;;;;7.20;2.92;;;;;;;;;;5038104;28;20029;-79
2022/07/04 10:02:09;;;;;;;5.88;2.88;;;;;;;;;;5037304;28;20021;-79
2022/07/04 10:04:46;;;;;;;5.20;3.17;;;;;;;;;;5055684;28;20024;-79
2022/07/04 10:07:12;;;;;;;7.82;3.53;;;;;;;;;;5055928;28;20472;-79
2022/07/04 10:09:38;;;;;;;8.45;4.90;;;;;;;;;;5037778;28;20021;-80
2022/07/04 10:12:05;;;;;;;7.07;3.03;;;;;;;;;;5055634;28;20031;-79
2022/07/04 10:14:30;;;;;;;5.85;3.13;;;;;;;;;;5038599;28;20070;-78
2022/07/04 10:16:56;;;;;;;4.57;3.25;;;;;;;;;;5058526;28;20017;-80
2022/07/04 10:19:37;;;;;;;6.97;3.85;;;;;;;;;;5055382;28;20024;-81
2022/07/04 10:22:04;;;;;;;4.93;3.35;;;;;;;;;;5055942;28;20147;-76
2022/07/04 10:24:31;;;;;;;6.97;4.28;;;;;;;;;;5023459;28;20032;-81
2022/07/04 10:27:03;;;;;;;5.40;4.38;;;;;;;;;;5055513;28;20374;-81
2022/07/04 10:29:37;;;;;;;4.07;3.30;;;;;;;;;;5038166;28;20469;-76
2022/07/04 10:32:02;;;;;;;5.95;3.58;;;;;;;;;;5055641;28;20025;-77
2022/07/04 10:34:28;;;;;;;4.22;3.72;;;;;;;;;;5037391;28;20025;-75
2022/07/04 10:36:55;;;;;;;13.07;4.07;;;;;;;;;;5055743;28;20029;-77
2022/07/04 10:39:24;;;;;;;3.40;3.10;;;;;;;;;;5055055;28;20017;-79
2022/07/04 10:42:01;;;;;;;9.30;3.28;;;;;;;;;;5055507;28;20088;-79
2022/07/04 10:44:34;;;;;;;4.88;3.35;;;;;;;;;;5036857;28;20013;-78
2022/07/04 10:47:00;;;;;;;2.88;2.67;;;;;;;;;;5037413;28;20469;-79
2022/07/04 10:49:28;;;;;;;5.47;3.42;;;;;;;;;;5055135;28;20466;-75
2022/07/04 10:52:12;;;;;;;6.05;3.45;;;;;;;;;;5020713;28;20021;-75
2022/07/04 10:54:39;;;;;;;2.90;2.70;;;;;;;;;;5037174;28;20060;-74
2022/07/04 10:57:14;;;;;;;3.78;3.03;;;;;;;;;;5037149;28;20029;-75
2022/07/04 10:59:57;;;;;;;8.55;3.53;;;;;;;;;;5036585;28;20039;-75
2022/07/04 11:02:25;;;;;;;3.72;3.05;;;;;;;;;;5036772;28;20028;-78
2022/07/04 11:04:57;;;;;;;6.25;3.25;;;;;;;;;;5054984;28;20370;-79
2022/07/04 11:07:30;;;;;;;4.93;3.15;;;;;;;;;;5054438;28;20100;-79
2022/07/04 11:09:55;;;;;;;;;;;;;;;;;;5054749;28;20036;-78
2022/07/04 11:12:21;;;;;;;4.93;2.58;;;;;;;;;;5054923;28;19904;-79
2022/07/04 11:14:47;;;;;;;7.50;3.40;;;;;;;;;;5054556;28;20101;-78
2022/07/04 11:17:18;;;;;;;6.18;3.42;;;;;;;;;;5054534;28;20493;-78
2022/07/04 11:19:43;;;;;;;3.63;3.33;;;;;;;;;;5054038;28;20051;-78
2022/07/04 11:22:10;;;;;;;7.03;3.42;;;;;;;;;;5053681;28;20451;-80
2022/07/04 11:24:37;;;;;;;3.45;3.08;;;;;;;;;;5036673;28;20029;-77
2022/07/04 11:27:03;;;;;;;3.92;2.90;;;;;;;;;;5019491;28;20017;-77
2022/07/04 11:29:49;;;;;;;4.20;2.83;;;;;;;;;;5016035;28;20084;-76
2022/07/04 11:32:15;;;;;;;3.65;3.20;;;;;;;;;;5034315;28;20032;-78
2022/07/04 11:34:42;;;;;;;3.67;3.13;;;;;;;;;;5033591;28;20101;-76
2022/07/04 11:37:07;;;;;;;5.05;2.90;;;;;;;;;;5034423;28;20025;-77
2022/07/04 11:39:33;;;;;;;3.40;3.03;;;;;;;;;;5016805;28;20021;-79
2022/07/04 11:45:02;;;;;;;4.00;3.05;;;;;;;;;;5033304;28;20032;-78
2022/07/04 11:47:35;;;;;;;4.10;3.00;;;;;;;;;;5016060;28;20100;-78
2022/07/04 11:50:03;;;;;;;3.20;2.90;;;;;;;;;;5033911;28;20017;-76
2022/07/04 11:52:30;;;;;;;9.38;3.55;;;;;;;;;;5033786;28;20478;-79
2022/07/04 11:54:57;;;;;;;6.20;3.80;;;;;;;;;;5032676;28;20025;-78
2022/07/04 11:57:23;;;;;;;3.38;3.10;;;;;;;;;;5033773;28;20398;-77
2022/07/04 11:59:53;;;;;;;4.18;2.83;;;;;;;;;;5033712;28;20028;-82
2022/07/04 12:02:21;;;;;;;5.53;2.38;;;;;;;;;;5016161;28;20029;-77
2022/07/04 12:04:46;;;;;;;4.85;2.70;;;;;;;;;;5033889;28;20040;-79
2022/07/04 12:07:15;;;;;;;3.30;2.92;;;;;;;;;;5033568;28;20022;-76
2022/07/04 12:10:01;;;;;;;7.20;2.25;;;;;;;;;;5033826;28;20501;-75
2022/07/04 12:12:28;;;;;;;3.35;3.15;;;;;;;;;;5033760;28;20040;-81
2022/07/04 12:14:59;;;;;;;3.00;2.70;;;;;;;;;;5017217;28;20095;-74
2022/07/04 12:17:25;;;;;;;;;;;;;;;;;;5034995;28;20033;-74
2022/07/04 12:19:52;;;;;;;3.28;3.08;;;;;;;;;;5034164;28;19917;-81
2022/07/04 12:22:29;;;;;;;2.75;2.20;;;;;;;;;;5035813;28;20029;-75
2022/07/04 12:24:55;;;;;;;6.78;2.78;;;;;;;;;;5032961;28;20506;-76
2022/07/04 12:27:23;;;;;;;4.97;2.63;;;;;;;;;;5018663;28;20120;-76
2022/07/04 12:29:50;;;;;;;2.85;2.65;;;;;;;;;;5053652;28;20056;-77
2022/07/04 12:32:16;;;;;;;2.47;2.28;;;;;;;;;;5052202;28;20035;-76
2022/07/04 12:34:41;;;;;;;5.78;2.75;;;;;;;;;;5052184;28;20111;-76
2022/07/04 12:37:10;;;;;;;2.85;2.58;;;;;;;;;;5051964;28;20045;-77
2022/07/04 12:39:40;;;;;;;2.70;2.50;;;;;;;;;;5035012;28;20173;-77
2022/07/04 12:42:19;;;;;;;3.00;2.55;;;;;;;;;;5050879;28;20048;-78
2022/07/04 12:45:04;;;;;;;2.70;2.50;;;;;;;;;;5052562;28;20119;-77
2022/07/04 12:47:41;;;;;;;3.80;2.92;;;;;;;;;;5034179;28;20045;-78
2022/07/04 12:50:06;;;;;;;3.17;2.78;;;;;;;;;;5034364;28;20021;-75
2022/07/04 12:52:32;;;;;;;2.80;2.60;;;;;;;;;;5052527;28;20055;-76
2022/07/04 12:55:07;;;;;;;3.08;2.70;;;;;;;;;;5053653;28;20107;-79
2022/07/04 12:57:33;;;;;;;2.67;2.47;;;;;;;;;;5035395;28;20040;-76
2022/07/04 12:59:58;;;;;;;13.48;6.22;;;;;;;;;;5053178;28;20028;-75
2022/07/04 13:02:23;;;;;;;12.33;3.07;;;;;;;;;;5035168;28;20426;-75
2022/07/04 13:04:49;;;;;;;5.47;3.27;;;;;;;;;;5053223;28;20270;-81
2022/07/04 13:07:15;;;;;;;4.47;3.80;;;;;;;;;;5052615;28;20029;-79
2022/07/04 13:09:42;;;;;;;9.82;3.58;;;;;;;;;;5056861;28;20076;-76
2022/07/04 13:12:29;;;;;;;4.43;3.30;;;;;;;;;;5056008;28;20491;-76
2022/07/04 13:14:57;;;;;;;5.18;3.20;;;;;;;;;;5056023;28;20416;-77
2022/07/04 13:17:23;;;;;;;5.07;2.80;;;;;;;;;;5038468;28;20059;-79
2022/07/04 13:19:48;;;;;;;4.40;3.45;;;;;;;;;;5038778;28;20041;-79
2022/07/04 13:22:15;;;;;;;3.38;3.10;;;;;;;;;;5056646;28;20028;-79
2022/07/04 13:24:41;;;;;;;6.75;3.35;;;;;;;;;;5058253;28;20116;-79
2022/07/04 13:27:08;;;;;;;2.67;2.47;;;;;;;;;;5059936;28;20023;-81
2022/07/04 13:29:33;;;;;;;6.10;2.90;;;;;;;;;;5056627;28;20444;-77
2022/07/04 13:32:00;;;;;;;4.60;2.90;;;;;;;;;;5052677;28;20064;-78
2022/07/04 13:34:27;;;;;;;5.00;2.53;;;;;;;;;;5036320;28;20021;-77
2022/07/04 13:36:54;;;;;;;3.28;2.50;;;;;;;;;;5018713;28;20033;-77
2022/07/04 13:39:28;;;;;;;6.53;2.40;;;;;;;;;;5038222;28;20026;-79
2022/07/04 13:41:55;;;;;;;3.10;2.83;;;;;;;;;;5036268;28;20022;-79
2022/07/04 13:44:21;;;;;;;3.47;2.55;;;;;;;;;;5019316;28;20470;-81
2022/07/04 13:46:51;;;;;;;4.57;2.72;;;;;;;;;;5054653;28;20116;-78
2022/07/04 13:49:17;;;;;;;2.72;2.42;;;;;;;;;;5056382;28;20059;-80
2022/07/04 13:51:43;;;;;;;3.97;2.63;;;;;;;;;;5056482;28;20096;-79
2022/07/04 13:54:12;;;;;;;3.63;2.97;;;;;;;;;;5056407;28;20036;-78
2022/07/04 13:56:39;;;;;;;3.25;2.88;;;;;;;;;;5056125;28;20025;-78
2022/07/04 13:59:05;;;;;;;6.05;2.90;;;;;;;;;;5021505;28;20037;-81
2022/07/04 14:01:31;;;;;;;3.55;2.65;;;;;;;;;;5038201;28;20053;-80
2022/07/04 14:03:59;;;;;;;5.18;2.13;;;;;;;;;;5056411;28;20527;-78
2022/07/04 14:06:26;;;;;;;4.68;2.28;;;;;;;;;;5056043;28;20051;-75
2022/07/04 14:08:52;;;;;;;3.22;2.08;;;;;;;;;;5038669;28;20055;-79
2022/07/04 14:11:19;;;;;;;2.20;2.00;;;;;;;;;;5042342;28;20421;-81
2022/07/04 14:13:46;;;;;;;2.90;2.47;;;;;;;;;;5052288;28;20068;-86
2022/07/04 14:16:11;;;;;;;3.92;2.00;;;;;;;;;;5032380;28;20181;-73
2022/07/04 14:18:38;;;;;;;2.08;1.88;;;;;;;;;;5036043;28;20422;-73
2022/07/04 14:21:04;;;;;;;2.80;1.90;;;;;;;;;;5018226;28;20033;-82
2022/07/04 14:23:41;;;;;;;4.78;2.90;;;;;;;;;;5036091;28;20072;-86
2022/07/04 14:26:07;;;;;;;3.25;1.42;;;;;;;;;;5018946;28;20025;-86
2022/07/04 14:28:32;;;;;;;3.83;2.05;;;;;;;;;;5001336;28;20053;-84
2022/07/04 14:30:58;;;;;;;2.38;2.17;;;;;;;;;;5001919;28;20026;-84
2022/07/04 14:33:28;;;;;;;1.70;1.60;;;;;;;;;;5036373;28;20025;-85
2022/07/04 14:35:55;;;;;;;7.90;2.78;;;;;;;;;;5001306;28;20069;-84
2022/07/04 14:38:21;;;;;;;5.07;2.70;;;;;;;;;;5018060;28;20433;-85
2022/07/04 14:40:49;;;;;;;2.65;2.03;;;;;;;;;;5035442;28;20025;-85
2022/07/04 14:43:17;;;;;;;6.35;2.33;;;;;;;;;;5017887;28;20486;-85
2022/07/04 14:45:44;;;;;;;2.53;2.00;;;;;;;;;;5018042;28;20033;-84
2022/07/04 14:48:10;;;;;;;2.85;2.25;;;;;;;;;;5001567;28;20021;-84
2022/07/04 14:50:35;;;;;;;6.20;1.90;;;;;;;;;;5035434;28;20039;-84
2022/07/04 14:53:00;;;;;;;4.63;3.25;;;;;;;;;;5017021;28;20279;-83
2022/07/04 14:55:26;;;;;;;5.17;2.17;;;;;;;;;;5017513;28;20035;-84
2022/07/04 14:57:51;;;;;;;4.90;2.50;;;;;;;;;;5017351;28;20815;-83
2022/07/04 15:00:18;;;;;;;4.43;2.30;;;;;;;;;;5034835;28;20386;-84
2022/07/04 15:02:46;;;;;;;7.43;3.10;;;;;;;;;;5035495;28;20041;-84